sensor_id;sensor_type;location;lat;lon;timestamp;pressure;altitude;pressure_sealevel;temperature
60003;BMP280;46322;52.018;8.702;2023-02-22T00:02:54;100259.16;;;19.67
60003;BMP280;46322;52.018;8.702;2023-02-22T00:07:55;100256.50;;;19.88
60003;BMP280;46322;52.018;8.702;2023-02-22T00:12:55;100256.56;;;20.38
60003;BMP280;46322;52.018;8.702;2023-02-22T00:17:55;100250.25;;;21.16
60003;BMP280;46322;52.018;8.702;2023-02-22T00:22:56;100240.28;;;21.12
60003;BMP280;46322;52.018;8.702;2023-02-22T00:27:57;100242.66;;;19.72
60003;BMP280;46322;52.018;8.702;2023-02-22T00:32:57;100233.78;;;19.61
60003;BMP280;46322;52.018;8.702;2023-02-22T00:38:00;100233.09;;;20.28
60003;BMP280;46322;52.018;8.702;2023-02-22T00:43:03;100240.81;;;20.01
60003;BMP280;46322;52.018;8.702;2023-02-22T00:48:04;100231.53;;;20.41
60003;BMP280;46322;52.018;8.702;2023-02-22T00:53:04;100223.09;;;19.96
60003;BMP280;46322;52.018;8.702;2023-02-22T00:58:05;100220.75;;;18.36
60003;BMP280;46322;52.018;8.702;2023-02-22T01:03:07;100216.94;;;17.92
60003;BMP280;46322;52.018;8.702;2023-02-22T01:08:08;100217.72;;;18.33
60003;BMP280;46322;52.018;8.702;2023-02-22T01:13:09;100210.94;;;18.06
60003;BMP280;46322;52.018;8.702;2023-02-22T01:18:10;100212.06;;;18.49
60003;BMP280;46322;52.018;8.702;2023-02-22T01:23:10;100206.19;;;18.88
60003;BMP280;46322;52.018;8.702;2023-02-22T01:28:11;100202.59;;;21.02
60003;BMP280;46322;52.018;8.702;2023-02-22T01:33:11;100204.84;;;21.10
60003;BMP280;46322;52.018;8.702;2023-02-22T01:38:12;100193.25;;;21.17
60003;BMP280;46322;52.018;8.702;2023-02-22T01:43:26;100190.00;;;20.60
60003;BMP280;46322;52.018;8.702;2023-02-22T01:48:34;100178.06;;;20.64
60003;BMP280;46322;52.018;8.702;2023-02-22T01:53:36;100170.31;;;19.31
60003;BMP280;46322;52.018;8.702;2023-02-22T01:58:39;100160.81;;;20.26
60003;BMP280;46322;52.018;8.702;2023-02-22T02:03:40;100168.09;;;20.29
60003;BMP280;46322;52.018;8.702;2023-02-22T02:13:41;100156.63;;;19.97
60003;BMP280;46322;52.018;8.702;2023-02-22T02:18:41;100150.81;;;19.81
60003;BMP280;46322;52.018;8.702;2023-02-22T02:23:57;100145.03;;;19.43
60003;BMP280;46322;52.018;8.702;2023-02-22T02:29:06;100138.53;;;18.64
60003;BMP280;46322;52.018;8.702;2023-02-22T02:39:35;100119.28;;;20.38
60003;BMP280;46322;52.018;8.702;2023-02-22T02:44:40;100113.16;;;20.02
60003;BMP280;46322;52.018;8.702;2023-02-22T02:55:02;100103.97;;;19.96
60003;BMP280;46322;52.018;8.702;2023-02-22T03:00:03;100097.03;;;19.91
60003;BMP280;46322;52.018;8.702;2023-02-22T03:10:19;100081.69;;;19.60
60003;BMP280;46322;52.018;8.702;2023-02-22T03:20:24;100081.28;;;19.44
60003;BMP280;46322;52.018;8.702;2023-02-22T03:25:29;100075.16;;;19.57
60003;BMP280;46322;52.018;8.702;2023-02-22T03:30:39;100068.59;;;19.44
60003;BMP280;46322;52.018;8.702;2023-02-22T03:35:42;100069.72;;;19.32
60003;BMP280;46322;52.018;8.702;2023-02-22T03:40:44;100075.88;;;19.26
60003;BMP280;46322;52.018;8.702;2023-02-22T03:45:46;100070.84;;;19.17
60003;BMP280;46322;52.018;8.702;2023-02-22T03:50:47;100067.72;;;18.94
60003;BMP280;46322;52.018;8.702;2023-02-22T03:55:48;100065.09;;;19.22
60003;BMP280;46322;52.018;8.702;2023-02-22T04:00:49;100063.09;;;18.94
60003;BMP280;46322;52.018;8.702;2023-02-22T04:05:49;100060.88;;;19.14
60003;BMP280;46322;52.018;8.702;2023-02-22T04:10:50;100063.91;;;19.02
60003;BMP280;46322;52.018;8.702;2023-02-22T04:15:50;100067.72;;;18.90
60003;BMP280;46322;52.018;8.702;2023-02-22T04:20:50;100057.66;;;18.77
60003;BMP280;46322;52.018;8.702;2023-02-22T04:25:50;100067.31;;;18.88
60003;BMP280;46322;52.018;8.702;2023-02-22T04:30:50;100063.00;;;18.62
60003;BMP280;46322;52.018;8.702;2023-02-22T04:35:50;100061.56;;;19.00
60003;BMP280;46322;52.018;8.702;2023-02-22T04:40:51;100064.22;;;18.72
60003;BMP280;46322;52.018;8.702;2023-02-22T04:45:51;100067.69;;;18.87
60003;BMP280;46322;52.018;8.702;2023-02-22T04:50:52;100062.25;;;18.69
60003;BMP280;46322;52.018;8.702;2023-02-22T04:55:52;100065.72;;;18.11
60003;BMP280;46322;52.018;8.702;2023-02-22T05:00:52;100062.38;;;18.25
60003;BMP280;46322;52.018;8.702;2023-02-22T05:05:52;100051.94;;;17.24
60003;BMP280;46322;52.018;8.702;2023-02-22T05:10:53;100035.81;;;18.02
60003;BMP280;46322;52.018;8.702;2023-02-22T05:15:53;100040.09;;;17.25
60003;BMP280;46322;52.018;8.702;2023-02-22T05:20:53;100035.84;;;16.87
60003;BMP280;46322;52.018;8.702;2023-02-22T05:25:53;100027.16;;;16.38
60003;BMP280;46322;52.018;8.702;2023-02-22T05:30:53;100017.28;;;16.42
60003;BMP280;46322;52.018;8.702;2023-02-22T05:35:53;100020.81;;;17.09
60003;BMP280;46322;52.018;8.702;2023-02-22T05:40:53;100017.81;;;17.58
60003;BMP280;46322;52.018;8.702;2023-02-22T05:45:54;100012.63;;;16.95
60003;BMP280;46322;52.018;8.702;2023-02-22T05:50:54;100018.09;;;18.63
60003;BMP280;46322;52.018;8.702;2023-02-22T05:55:54;100018.00;;;17.76
60003;BMP280;46322;52.018;8.702;2023-02-22T06:00:54;100017.56;;;17.26
60003;BMP280;46322;52.018;8.702;2023-02-22T06:05:54;100014.22;;;17.88
60003;BMP280;46322;52.018;8.702;2023-02-22T06:10:54;100004.19;;;16.33
60003;BMP280;46322;52.018;8.702;2023-02-22T06:15:55;100000.78;;;16.96
60003;BMP280;46322;52.018;8.702;2023-02-22T06:20:55;100007.91;;;16.85
60003;BMP280;46322;52.018;8.702;2023-02-22T06:25:55;100003.81;;;18.38
60003;BMP280;46322;52.018;8.702;2023-02-22T06:30:57;99998.78;;;17.67
60003;BMP280;46322;52.018;8.702;2023-02-22T06:35:57;100001.50;;;18.32
60003;BMP280;46322;52.018;8.702;2023-02-22T06:40:57;99996.72;;;17.13
60003;BMP280;46322;52.018;8.702;2023-02-22T06:45:57;100009.66;;;18.57
60003;BMP280;46322;52.018;8.702;2023-02-22T06:50:57;100007.69;;;16.11
60003;BMP280;46322;52.018;8.702;2023-02-22T06:55:57;100007.03;;;16.74
60003;BMP280;46322;52.018;8.702;2023-02-22T07:00:57;100008.72;;;17.26
60003;BMP280;46322;52.018;8.702;2023-02-22T07:05:58;100007.22;;;17.69
60003;BMP280;46322;52.018;8.702;2023-02-22T07:10:58;100008.16;;;17.91
60003;BMP280;46322;52.018;8.702;2023-02-22T07:15:58;100016.75;;;16.89
60003;BMP280;46322;52.018;8.702;2023-02-22T07:20:58;100010.63;;;17.62
60003;BMP280;46322;52.018;8.702;2023-02-22T07:25:59;100015.97;;;17.22
60003;BMP280;46322;52.018;8.702;2023-02-22T07:30:59;100010.09;;;18.66
60003;BMP280;46322;52.018;8.702;2023-02-22T07:35:59;100005.28;;;17.25
60003;BMP280;46322;52.018;8.702;2023-02-22T07:40:59;100012.00;;;17.46
60003;BMP280;46322;52.018;8.702;2023-02-22T07:45:59;100014.69;;;17.09
60003;BMP280;46322;52.018;8.702;2023-02-22T07:51:00;100019.00;;;18.09
60003;BMP280;46322;52.018;8.702;2023-02-22T07:56:00;100014.34;;;18.78
60003;BMP280;46322;52.018;8.702;2023-02-22T08:01:01;100014.66;;;18.66
60003;BMP280;46322;52.018;8.702;2023-02-22T08:06:01;100012.66;;;17.83
60003;BMP280;46322;52.018;8.702;2023-02-22T08:11:02;100003.84;;;18.45
60003;BMP280;46322;52.018;8.702;2023-02-22T08:16:02;100000.25;;;19.52
60003;BMP280;46322;52.018;8.702;2023-02-22T08:21:02;100002.94;;;19.13
60003;BMP280;46322;52.018;8.702;2023-02-22T08:26:03;100005.56;;;18.95
60003;BMP280;46322;52.018;8.702;2023-02-22T08:31:04;100000.41;;;18.44
60003;BMP280;46322;52.018;8.702;2023-02-22T08:36:04;100006.84;;;18.29
60003;BMP280;46322;52.018;8.702;2023-02-22T08:41:04;99992.91;;;18.99
60003;BMP280;46322;52.018;8.702;2023-02-22T08:46:04;99996.22;;;17.37
60003;BMP280;46322;52.018;8.702;2023-02-22T08:51:04;99990.25;;;19.60
60003;BMP280;46322;52.018;8.702;2023-02-22T08:56:05;99993.84;;;18.35
60003;BMP280;46322;52.018;8.702;2023-02-22T09:01:05;99983.34;;;19.20
60003;BMP280;46322;52.018;8.702;2023-02-22T09:06:05;99989.47;;;19.27
60003;BMP280;46322;52.018;8.702;2023-02-22T09:11:05;99983.66;;;18.76
60003;BMP280;46322;52.018;8.702;2023-02-22T09:16:05;99971.81;;;19.30
60003;BMP280;46322;52.018;8.702;2023-02-22T09:21:06;99967.22;;;20.67
60003;BMP280;46322;52.018;8.702;2023-02-22T09:26:09;99966.97;;;20.37
60003;BMP280;46322;52.018;8.702;2023-02-22T09:31:09;99955.84;;;20.97
60003;BMP280;46322;52.018;8.702;2023-02-22T09:36:09;99961.22;;;21.45
60003;BMP280;46322;52.018;8.702;2023-02-22T09:41:13;99958.06;;;21.54
60003;BMP280;46322;52.018;8.702;2023-02-22T09:46:33;99958.53;;;21.83
60003;BMP280;46322;52.018;8.702;2023-02-22T09:51:41;99949.34;;;20.91
60003;BMP280;46322;52.018;8.702;2023-02-22T09:56:42;99947.88;;;21.69
60003;BMP280;46322;52.018;8.702;2023-02-22T10:01:45;99940.22;;;24.20
60003;BMP280;46322;52.018;8.702;2023-02-22T10:12:15;99939.19;;;23.19
60003;BMP280;46322;52.018;8.702;2023-02-22T10:17:21;99932.97;;;21.91
60003;BMP280;46322;52.018;8.702;2023-02-22T10:27:33;99938.72;;;22.50
60003;BMP280;46322;52.018;8.702;2023-02-22T10:32:43;99923.88;;;24.08
60003;BMP280;46322;52.018;8.702;2023-02-22T10:37:43;99926.22;;;22.87
60003;BMP280;46322;52.018;8.702;2023-02-22T10:42:44;99919.78;;;24.19
60003;BMP280;46322;52.018;8.702;2023-02-22T10:47:44;99917.69;;;23.12
60003;BMP280;46322;52.018;8.702;2023-02-22T10:57:45;99914.28;;;24.71
60003;BMP280;46322;52.018;8.702;2023-02-22T11:02:50;99901.44;;;25.04
60003;BMP280;46322;52.018;8.702;2023-02-22T11:07:50;99908.75;;;24.10
60003;BMP280;46322;52.018;8.702;2023-02-22T11:12:50;99904.03;;;24.63
60003;BMP280;46322;52.018;8.702;2023-02-22T11:17:51;99891.25;;;24.79
60003;BMP280;46322;52.018;8.702;2023-02-22T11:22:56;99899.06;;;25.19
60003;BMP280;46322;52.018;8.702;2023-02-22T11:28:05;99898.25;;;27.27
60003;BMP280;46322;52.018;8.702;2023-02-22T11:38:17;99882.94;;;24.87
60003;BMP280;46322;52.018;8.702;2023-02-22T11:43:18;99880.88;;;24.91
60003;BMP280;46322;52.018;8.702;2023-02-22T11:48:19;99867.22;;;23.25
60003;BMP280;46322;52.018;8.702;2023-02-22T11:58:48;99863.88;;;26.20
60003;BMP280;46322;52.018;8.702;2023-02-22T12:14:15;99851.63;;;25.90
60003;BMP280;46322;52.018;8.702;2023-02-22T12:19:20;99840.44;;;28.66
60003;BMP280;46322;52.018;8.702;2023-02-22T12:24:26;99835.81;;;27.63
60003;BMP280;46322;52.018;8.702;2023-02-22T12:29:30;99832.50;;;27.68
60003;BMP280;46322;52.018;8.702;2023-02-22T12:34:52;99837.66;;;27.04
60003;BMP280;46322;52.018;8.702;2023-02-22T12:45:29;99823.63;;;27.46
60003;BMP280;46322;52.018;8.702;2023-02-22T12:50:45;99820.63;;;28.29
60003;BMP280;46322;52.018;8.702;2023-02-22T13:01:16;99812.91;;;28.55
60003;BMP280;46322;52.018;8.702;2023-02-22T13:26:41;99791.59;;;25.50
60003;BMP280;46322;52.018;8.702;2023-02-22T13:32:04;99797.00;;;26.57
60003;BMP280;46322;52.018;8.702;2023-02-22T13:53:14;99784.91;;;27.42
60003;BMP280;46322;52.018;8.702;2023-02-22T13:58:16;99788.72;;;26.83
60003;BMP280;46322;52.018;8.702;2023-02-22T14:03:31;99779.19;;;27.09
60003;BMP280;46322;52.018;8.702;2023-02-22T14:08:37;99783.00;;;27.61
60003;BMP280;46322;52.018;8.702;2023-02-22T14:24:15;99769.47;;;28.24
60003;BMP280;46322;52.018;8.702;2023-02-22T14:29:17;99784.31;;;25.73
60003;BMP280;46322;52.018;8.702;2023-02-22T14:34:18;99773.78;;;25.37
60003;BMP280;46322;52.018;8.702;2023-02-22T14:39:37;99766.13;;;27.84
60003;BMP280;46322;52.018;8.702;2023-02-22T14:45:00;99767.38;;;25.31
60003;BMP280;46322;52.018;8.702;2023-02-22T14:50:02;99766.19;;;26.17
60003;BMP280;46322;52.018;8.702;2023-02-22T15:05:13;99753.47;;;25.79
60003;BMP280;46322;52.018;8.702;2023-02-22T15:15:18;99745.03;;;26.12
60003;BMP280;46322;52.018;8.702;2023-02-22T15:20:18;99750.88;;;25.63
60003;BMP280;46322;52.018;8.702;2023-02-22T15:25:22;99744.19;;;26.02
60003;BMP280;46322;52.018;8.702;2023-02-22T15:30:25;99736.56;;;27.06
60003;BMP280;46322;52.018;8.702;2023-02-22T15:35:29;99746.59;;;25.87
60003;BMP280;46322;52.018;8.702;2023-02-22T15:40:29;99736.44;;;28.41
60003;BMP280;46322;52.018;8.702;2023-02-22T15:45:29;99738.28;;;27.22
60003;BMP280;46322;52.018;8.702;2023-02-22T15:50:30;99741.78;;;26.39
60003;BMP280;46322;52.018;8.702;2023-02-22T15:55:34;99738.38;;;26.13
60003;BMP280;46322;52.018;8.702;2023-02-22T16:00:40;99750.34;;;25.17
60003;BMP280;46322;52.018;8.702;2023-02-22T16:05:48;99754.69;;;25.78
60003;BMP280;46322;52.018;8.702;2023-02-22T16:10:57;99746.66;;;26.74
60003;BMP280;46322;52.018;8.702;2023-02-22T16:16:04;99739.03;;;28.08
60003;BMP280;46322;52.018;8.702;2023-02-22T16:21:06;99747.84;;;25.23
60003;BMP280;46322;52.018;8.702;2023-02-22T16:26:28;99756.63;;;25.65
60003;BMP280;46322;52.018;8.702;2023-02-22T16:31:46;99745.22;;;27.23
60003;BMP280;46322;52.018;8.702;2023-02-22T16:36:47;99752.00;;;26.56
60003;BMP280;46322;52.018;8.702;2023-02-22T16:41:49;99754.66;;;26.69
60003;BMP280;46322;52.018;8.702;2023-02-22T16:46:50;99752.97;;;25.34
60003;BMP280;46322;52.018;8.702;2023-02-22T16:51:54;99759.06;;;22.23
60003;BMP280;46322;52.018;8.702;2023-02-22T16:56:55;99753.47;;;23.16
60003;BMP280;46322;52.018;8.702;2023-02-22T17:01:56;99755.44;;;24.61
60003;BMP280;46322;52.018;8.702;2023-02-22T17:06:56;99753.41;;;24.04
60003;BMP280;46322;52.018;8.702;2023-02-22T17:11:56;99762.44;;;24.88
60003;BMP280;46322;52.018;8.702;2023-02-22T17:16:56;99765.94;;;21.73
60003;BMP280;46322;52.018;8.702;2023-02-22T17:21:56;99765.88;;;22.27
60003;BMP280;46322;52.018;8.702;2023-02-22T17:26:57;99770.00;;;22.35
60003;BMP280;46322;52.018;8.702;2023-02-22T17:31:57;99767.88;;;22.46
60003;BMP280;46322;52.018;8.702;2023-02-22T17:37:02;99770.56;;;23.65
60003;BMP280;46322;52.018;8.702;2023-02-22T17:42:02;99773.59;;;23.51
60003;BMP280;46322;52.018;8.702;2023-02-22T17:47:03;99776.31;;;25.44
60003;BMP280;46322;52.018;8.702;2023-02-22T17:52:03;99779.25;;;26.09
60003;BMP280;46322;52.018;8.702;2023-02-22T17:57:03;99774.19;;;25.86
60003;BMP280;46322;52.018;8.702;2023-02-22T18:02:04;99780.38;;;25.86
60003;BMP280;46322;52.018;8.702;2023-02-22T18:07:04;99785.28;;;25.53
60003;BMP280;46322;52.018;8.702;2023-02-22T18:12:05;99781.59;;;25.73
60003;BMP280;46322;52.018;8.702;2023-02-22T18:17:05;99785.94;;;25.70
60003;BMP280;46322;52.018;8.702;2023-02-22T18:22:05;99789.56;;;25.54
60003;BMP280;46322;52.018;8.702;2023-02-22T18:27:05;99785.06;;;25.23
60003;BMP280;46322;52.018;8.702;2023-02-22T18:32:05;99788.84;;;25.25
60003;BMP280;46322;52.018;8.702;2023-02-22T18:37:06;99792.66;;;25.15
60003;BMP280;46322;52.018;8.702;2023-02-22T18:42:06;99795.28;;;22.68
60003;BMP280;46322;52.018;8.702;2023-02-22T18:47:06;99794.03;;;21.45
60003;BMP280;46322;52.018;8.702;2023-02-22T18:52:07;99791.31;;;19.53
60003;BMP280;46322;52.018;8.702;2023-02-22T18:57:08;99790.09;;;19.75
60003;BMP280;46322;52.018;8.702;2023-02-22T19:02:12;99791.19;;;19.81
60003;BMP280;46322;52.018;8.702;2023-02-22T19:07:13;99787.34;;;19.82
60003;BMP280;46322;52.018;8.702;2023-02-22T19:12:13;99786.97;;;19.80
60003;BMP280;46322;52.018;8.702;2023-02-22T19:17:13;99793.97;;;20.29
60003;BMP280;46322;52.018;8.702;2023-02-22T19:22:14;99782.56;;;20.18
60003;BMP280;46322;52.018;8.702;2023-02-22T19:27:14;99784.16;;;20.05
60003;BMP280;46322;52.018;8.702;2023-02-22T19:32:14;99787.31;;;19.93
60003;BMP280;46322;52.018;8.702;2023-02-22T19:37:15;99787.00;;;19.84
60003;BMP280;46322;52.018;8.702;2023-02-22T19:42:15;99782.50;;;20.25
60003;BMP280;46322;52.018;8.702;2023-02-22T19:47:15;99779.09;;;19.45
60003;BMP280;46322;52.018;8.702;2023-02-22T19:52:15;99779.72;;;20.36
60003;BMP280;46322;52.018;8.702;2023-02-22T19:57:16;99780.19;;;19.58
60003;BMP280;46322;52.018;8.702;2023-02-22T20:02:16;99787.50;;;21.12
60003;BMP280;46322;52.018;8.702;2023-02-22T20:07:16;99788.88;;;21.85
60003;BMP280;46322;52.018;8.702;2023-02-22T20:12:16;99795.25;;;21.03
60003;BMP280;46322;52.018;8.702;2023-02-22T20:17:17;99799.88;;;20.62
60003;BMP280;46322;52.018;8.702;2023-02-22T20:22:21;99797.00;;;20.42
60003;BMP280;46322;52.018;8.702;2023-02-22T20:27:21;99800.38;;;21.28
60003;BMP280;46322;52.018;8.702;2023-02-22T20:32:21;99801.19;;;22.40
60003;BMP280;46322;52.018;8.702;2023-02-22T20:37:24;99802.34;;;19.76
60003;BMP280;46322;52.018;8.702;2023-02-22T20:42:25;99803.38;;;20.03
60003;BMP280;46322;52.018;8.702;2023-02-22T20:47:25;99802.91;;;20.19
60003;BMP280;46322;52.018;8.702;2023-02-22T20:52:26;99799.22;;;19.95
60003;BMP280;46322;52.018;8.702;2023-02-22T20:57:33;99803.50;;;20.48
60003;BMP280;46322;52.018;8.702;2023-02-22T21:02:33;99809.31;;;19.63
60003;BMP280;46322;52.018;8.702;2023-02-22T21:07:33;99808.63;;;20.76
60003;BMP280;46322;52.018;8.702;2023-02-22T21:12:34;99813.50;;;20.48
60003;BMP280;46322;52.018;8.702;2023-02-22T21:17:34;99816.13;;;20.55
60003;BMP280;46322;52.018;8.702;2023-02-22T21:22:34;99817.97;;;20.10
60003;BMP280;46322;52.018;8.702;2023-02-22T21:27:35;99813.75;;;21.39
60003;BMP280;46322;52.018;8.702;2023-02-22T21:32:35;99819.09;;;20.67
60003;BMP280;46322;52.018;8.702;2023-02-22T21:37:35;99821.09;;;20.56
60003;BMP280;46322;52.018;8.702;2023-02-22T21:42:35;99824.28;;;20.44
60003;BMP280;46322;52.018;8.702;2023-02-22T21:47:35;99823.91;;;21.89
60003;BMP280;46322;52.018;8.702;2023-02-22T21:52:36;99830.53;;;21.54
60003;BMP280;46322;52.018;8.702;2023-02-22T21:57:36;99827.44;;;21.21
60003;BMP280;46322;52.018;8.702;2023-02-22T22:02:36;99826.34;;;21.49
60003;BMP280;46322;52.018;8.702;2023-02-22T22:07:36;99826.75;;;21.13
60003;BMP280;46322;52.018;8.702;2023-02-22T22:12:36;99818.97;;;22.37
60003;BMP280;46322;52.018;8.702;2023-02-22T22:17:37;99832.16;;;21.47
60003;BMP280;46322;52.018;8.702;2023-02-22T22:22:37;99832.75;;;20.87
60003;BMP280;46322;52.018;8.702;2023-02-22T22:27:38;99823.69;;;20.19
60003;BMP280;46322;52.018;8.702;2023-02-22T22:32:38;99837.41;;;20.35
60003;BMP280;46322;52.018;8.702;2023-02-22T22:37:38;99840.75;;;20.50
60003;BMP280;46322;52.018;8.702;2023-02-22T22:42:39;99844.03;;;20.16
60003;BMP280;46322;52.018;8.702;2023-02-22T22:47:39;99841.72;;;20.77
60003;BMP280;46322;52.018;8.702;2023-02-22T22:52:40;99837.16;;;21.11
60003;BMP280;46322;52.018;8.702;2023-02-22T22:57:40;99843.81;;;21.71
60003;BMP280;46322;52.018;8.702;2023-02-22T23:02:40;99843.25;;;21.16
60003;BMP280;46322;52.018;8.702;2023-02-22T23:07:41;99856.59;;;21.64
60003;BMP280;46322;52.018;8.702;2023-02-22T23:12:41;99858.31;;;20.72
60003;BMP280;46322;52.018;8.702;2023-02-22T23:17:41;99859.94;;;21.03
60003;BMP280;46322;52.018;8.702;2023-02-22T23:22:41;99863.03;;;19.81
60003;BMP280;46322;52.018;8.702;2023-02-22T23:27:41;99869.63;;;19.69
60003;BMP280;46322;52.018;8.702;2023-02-22T23:32:42;99869.69;;;21.65
60003;BMP280;46322;52.018;8.702;2023-02-22T23:37:42;99866.41;;;21.51
60003;BMP280;46322;52.018;8.702;2023-02-22T23:42:49;99867.91;;;21.18
60003;BMP280;46322;52.018;8.702;2023-02-22T23:52:51;99878.44;;;19.69
60003;BMP280;46322;52.018;8.702;2023-02-22T23:57:52;99881.91;;;19.63
